Time;durP1;ratioP1;P1;durP2;ratioP2;P2;SDS_P1;SDS_P2;PMS_P1;PMS_P2;Temp;Humidity;BMP_temperature;BMP_pressure;BME280_temperature;BME280_humidity;BME280_pressure;Samples;Min_cycle;Max_cycle;Signal;HPM_P1;HPM_P2
2021/11/02 00:01:56;;;;;;;;;;;6.10;96.40;;;;;;5067071;28;19913;-78
2021/11/02 00:04:22;;;;;;;;;;;6.10;96.50;;;;;;5088790;28;19908;-78
2021/11/02 00:06:47;;;;;;;;;;;6.10;96.40;;;;;;5088470;28;19908;-75
2021/11/02 00:09:16;;;;;;;;;;;6.10;96.40;;;;;;5088475;28;20015;-76
2021/11/02 00:11:43;;;;;;;;;;;6.10;96.50;;;;;;5088267;28;19998;-77
2021/11/02 00:14:10;;;;;;;;;;;6.10;96.50;;;;;;5088514;28;19915;-76
2021/11/02 00:16:36;;;;;;;;;;;6.10;96.50;;;;;;5087025;28;19912;-76
2021/11/02 00:19:04;;;;;;;;;;;6.10;96.50;;;;;;5087092;28;19919;-74
2021/11/02 00:21:33;;;;;;;;;;;6.10;96.50;;;;;;5087187;28;19947;-78
2021/11/02 00:24:09;;;;;;;;;;;6.10;96.50;;;;;;5088537;28;19919;-76
2021/11/02 00:26:36;;;;;;;;;;;6.10;96.50;;;;;;5088162;28;19916;-77
2021/11/02 00:29:02;;;;;;;;;;;6.10;96.50;;;;;;5086798;28;19993;-76
2021/11/02 00:31:28;;;;;;;;;;;6.10;96.60;;;;;;5088382;28;19908;-78
2021/11/02 00:33:53;;;;;;;;;;;6.10;96.60;;;;;;5088249;28;19916;-77
2021/11/02 00:36:19;;;;;;;;;;;6.10;96.60;;;;;;5087949;28;19923;-75
2021/11/02 00:38:44;;;;;;;;;;;6.10;96.60;;;;;;5086820;28;19986;-76
2021/11/02 00:41:10;;;;;;;;;;;6.10;96.70;;;;;;5088174;28;19937;-78
2021/11/02 00:43:36;;;;;;;;;;;6.00;96.70;;;;;;5088004;28;19977;-77
2021/11/02 00:46:02;;;;;;;;;;;6.10;96.70;;;;;;5087062;28;19993;-75
2021/11/02 00:48:28;;;;;;;;;;;6.00;96.70;;;;;;5088015;28;19916;-76
2021/11/02 00:50:54;;;;;;;;;;;6.00;96.80;;;;;;5070246;28;19912;-78
2021/11/02 00:53:19;;;;;;;;;;;6.00;96.80;;;;;;5086955;28;20385;-78
2021/11/02 00:55:45;;;;;;;;;;;6.00;96.80;;;;;;5089873;28;19909;-77
2021/11/02 00:58:11;;;;;;;;;;;6.00;96.80;;;;;;5090833;28;19916;-76
2021/11/02 01:00:37;;;;;;;;;;;5.90;96.80;;;;;;5092063;28;19908;-76
2021/11/02 01:03:04;;;;;;;;;;;6.00;96.90;;;;;;5091898;28;19958;-77
2021/11/02 01:05:29;;;;;;;;;;;6.00;96.80;;;;;;5091817;28;19943;-78
2021/11/02 01:07:55;;;;;;;;;;;6.00;96.90;;;;;;5091836;28;20358;-77
2021/11/02 01:10:21;;;;;;;;;;;5.90;96.80;;;;;;5091788;28;20433;-75
2021/11/02 01:12:47;;;;;;;;;;;5.90;96.80;;;;;;5091707;28;19912;-75
2021/11/02 01:15:15;;;;;;;;;;;5.90;96.90;;;;;;5091627;28;19908;-77
2021/11/02 01:17:40;;;;;;;;;;;5.90;96.90;;;;;;5091701;28;19908;-76
2021/11/02 01:20:07;;;;;;;;;;;5.90;96.90;;;;;;5090273;28;19916;-78
2021/11/02 01:22:33;;;;;;;;;;;5.90;96.90;;;;;;5090317;28;19908;-78
2021/11/02 01:24:58;;;;;;;;;;;5.90;97.00;;;;;;5090425;28;19958;-77
2021/11/02 01:27:24;;;;;;;;;;;5.90;97.00;;;;;;5090226;28;19948;-75
2021/11/02 01:29:50;;;;;;;;;;;5.80;97.00;;;;;;5091876;28;19999;-75
2021/11/02 01:32:15;;;;;;;;;;;5.90;97.00;;;;;;5091463;28;19908;-77
2021/11/02 01:34:41;;;;;;;;;;;5.90;97.00;;;;;;5091298;28;19916;-76
2021/11/02 01:37:07;;;;;;;;;;;5.80;97.00;;;;;;5090015;28;20373;-75
2021/11/02 01:39:33;;;;;;;;;;;5.80;97.00;;;;;;5091325;28;19916;-77
2021/11/02 01:42:01;;;;;;;;;;;5.80;97.10;;;;;;5091240;28;20247;-75
2021/11/02 01:44:26;;;;;;;;;;;5.80;97.10;;;;;;5091151;28;20208;-77
2021/11/02 01:46:52;;;;;;;;;;;5.80;97.10;;;;;;5091205;28;19908;-77
2021/11/02 01:49:18;;;;;;;;;;;5.80;97.10;;;;;;5089790;28;19908;-77
2021/11/02 01:51:44;;;;;;;;;;;5.70;97.00;;;;;;5089873;28;19912;-76
2021/11/02 01:54:09;;;;;;;;;;;5.80;97.10;;;;;;5091016;28;19912;-76
2021/11/02 01:56:36;;;;;;;;;;;5.80;97.00;;;;;;5090863;28;19912;-78
2021/11/02 01:59:02;;;;;;;;;;;5.80;97.00;;;;;;5090899;28;20393;-77
2021/11/02 02:01:47;;;;;;;;;;;5.70;97.00;;;;;;5089577;28;20333;-76
2021/11/02 02:04:13;;;;;;;;;;;5.70;97.10;;;;;;5089754;28;20255;-78
2021/11/02 02:06:38;;;;;;;;;;;5.70;97.10;;;;;;5090442;28;19912;-76
2021/11/02 02:09:13;;;;;;;;;;;5.70;97.10;;;;;;5089397;28;20137;-76
2021/11/02 02:11:47;;;;;;;;;;;5.70;97.10;;;;;;5090708;28;19915;-76
2021/11/02 02:14:20;;;;;;;;;;;5.70;97.10;;;;;;5090666;28;19919;-77
2021/11/02 02:16:47;;;;;;;;;;;5.70;97.20;;;;;;5090608;28;19912;-76
2021/11/02 02:19:31;;;;;;;;;;;5.70;97.20;;;;;;5090600;28;19915;-78
2021/11/02 02:22:09;;;;;;;;;;;5.70;97.20;;;;;;5090781;28;20373;-77
2021/11/02 02:24:53;;;;;;;;;;;5.70;97.30;;;;;;5091098;28;20373;-78
2021/11/02 02:27:40;;;;;;;;;;;5.70;97.30;;;;;;5090444;28;19939;-75
2021/11/02 02:30:07;;;;;;;;;;;5.60;97.30;;;;;;5090453;28;19939;-75
2021/11/02 02:32:33;;;;;;;;;;;5.60;97.30;;;;;;5090347;28;19908;-76
2021/11/02 02:35:01;;;;;;;;;;;5.60;97.30;;;;;;5089141;28;19927;-76
2021/11/02 02:37:28;;;;;;;;;;;5.60;97.30;;;;;;5088787;28;19912;-77
2021/11/02 02:39:55;;;;;;;;;;;5.60;97.30;;;;;;5090267;28;19913;-78
2021/11/02 02:42:21;;;;;;;;;;;5.60;97.30;;;;;;5090214;28;20278;-76
2021/11/02 02:44:49;;;;;;;;;;;5.60;97.30;;;;;;5089802;28;19924;-75
2021/11/02 02:47:18;;;;;;;;;;;5.60;97.30;;;;;;5090350;28;19918;-76
2021/11/02 02:49:45;;;;;;;;;;;5.60;97.30;;;;;;5090052;28;19962;-78
2021/11/02 02:52:13;;;;;;;;;;;5.60;97.30;;;;;;5089968;28;20366;-76
2021/11/02 02:54:48;;;;;;;;;;;5.60;97.30;;;;;;5089744;28;19916;-75
2021/11/02 02:57:17;;;;;;;;;;;5.60;97.40;;;;;;5089808;28;19912;-80
2021/11/02 02:59:43;;;;;;;;;;;5.60;97.40;;;;;;5089663;28;20275;-76
2021/11/02 03:02:12;;;;;;;;;;;5.60;97.40;;;;;;5089715;28;19919;-75
2021/11/02 03:04:39;;;;;;;;;;;5.60;97.40;;;;;;5089822;28;19908;-77
2021/11/02 03:07:04;;;;;;;;;;;5.60;97.50;;;;;;5088310;28;19951;-78
2021/11/02 03:09:30;;;;;;;;;;;5.60;97.50;;;;;;5088208;28;19943;-75
2021/11/02 03:11:56;;;;;;;;;;;5.70;97.60;;;;;;5089634;28;19915;-77
2021/11/02 03:14:44;;;;;;;;;;;5.60;97.60;;;;;;5088203;28;19920;-78
2021/11/02 03:17:13;;;;;;;;;;;5.60;97.50;;;;;;5088012;28;19908;-75
2021/11/02 03:55:01;;;;;;;;;;;5.70;97.80;;;;;;5088941;28;20400;-75
2021/11/02 04:35:31;;;;;;;;;;;5.90;97.70;;;;;;5067899;28;19951;-77
2021/11/02 04:47:28;;;;;;;;;;;6.00;97.80;;;;;;5065196;28;19970;-77
2021/11/02 05:47:20;;;;;;;;;;;5.50;98.30;;;;;;5090306;28;19928;-77
2021/11/02 06:05:25;;;;;;;;;;;5.50;98.20;;;;;;5090905;28;19912;-77
2021/11/02 06:29:02;;;;;;;;;;;5.40;98.30;;;;;;5090474;28;20014;-76
2021/11/02 06:31:32;;;;;;;;;;;5.40;98.30;;;;;;5090438;28;19943;-76
2021/11/02 06:42:23;;;;;;;;;;;5.40;98.50;;;;;;5090501;28;19919;-75
2021/11/02 07:18:23;;;;;;;;;;;5.40;98.90;;;;;;5089279;28;20339;-77
2021/11/02 07:21:11;;;;;;;;;;;5.40;98.80;;;;;;5088840;28;19912;-77
2021/11/02 07:26:27;;;;;;;;;;;5.40;98.80;;;;;;5089068;28;19912;-77
2021/11/02 08:46:57;;;;;;;;;;;8.20;99.20;;;;;;5087720;28;19923;-76
2021/11/02 08:49:23;;;;;;;;;;;8.40;98.80;;;;;;5087316;28;19984;-77
2021/11/02 08:51:49;;;;;;;;;;;8.40;98.30;;;;;;5087324;28;20363;-78
2021/11/02 08:54:16;;;;;;;;;;;8.40;98.10;;;;;;5086955;28;20050;-75
2021/11/02 08:56:41;;;;;;;;;;;8.40;97.90;;;;;;5085678;28;19916;-76
2021/11/02 08:59:07;;;;;;;;;;;8.30;98.00;;;;;;5087250;28;19931;-78
2021/11/02 09:01:36;;;;;;;;;;;8.30;98.10;;;;;;5086923;28;20415;-74
2021/11/02 09:04:02;;;;;;;;;;;8.30;98.10;;;;;;5088147;28;19908;-76
2021/11/02 09:06:28;;;;;;;;;;;8.40;98.30;;;;;;5088493;28;19939;-77
2021/11/02 09:08:55;;;;;;;;;;;8.50;98.30;;;;;;5089229;28;19973;-76
2021/11/02 09:11:25;;;;;;;;;;;8.60;98.20;;;;;;5087211;28;19912;-75
2021/11/02 09:13:53;;;;;;;;;;;8.70;98.10;;;;;;5086291;28;20161;-75
2021/11/02 09:16:19;;;;;;;;;;;8.70;98.00;;;;;;5089601;28;19915;-77
2021/11/02 09:18:45;;;;;;;;;;;8.70;97.80;;;;;;5092328;28;20319;-75
2021/11/02 09:21:11;;;;;;;;;;;8.70;97.60;;;;;;5092560;28;20433;-78
2021/11/02 09:23:43;;;;;;;;;;;8.60;97.50;;;;;;5092649;28;19969;-76
2021/11/02 09:26:09;;;;;;;;;;;8.60;97.60;;;;;;5091827;28;19919;-76
2021/11/02 09:28:35;;;;;;;;;;;8.60;97.70;;;;;;5090240;28;19908;-77
2021/11/02 09:31:01;;;;;;;;;;;8.70;97.90;;;;;;5091796;28;19916;-77
2021/11/02 09:33:27;;;;;;;;;;;8.80;97.90;;;;;;5073238;28;20180;-78
2021/11/02 09:36:02;;;;;;;;;;;8.90;97.60;;;;;;5091642;28;20002;-76
2021/11/02 09:38:40;;;;;;;;;;;8.90;97.50;;;;;;5091558;28;19977;-77
2021/11/02 09:41:08;;;;;;;;;;;8.90;97.40;;;;;;5091871;28;19908;-76
2021/11/02 09:43:38;;;;;;;;;;;8.90;97.50;;;;;;5091682;28;20370;-76
2021/11/02 09:46:19;;;;;;;;;;;8.90;97.50;;;;;;5090556;28;19915;-76
2021/11/02 09:49:04;;;;;;;;;;;9.00;97.70;;;;;;5090757;28;20366;-75
2021/11/02 09:51:52;;;;;;;;;;;9.10;97.80;;;;;;5090059;28;19912;-76
2021/11/02 09:54:43;;;;;;;;;;;9.20;97.60;;;;;;5091616;28;19918;-76
2021/11/02 09:57:21;;;;;;;;;;;9.20;97.30;;;;;;5088439;28;19908;-74
2021/11/02 09:59:53;;;;;;;;;;;9.10;97.10;;;;;;5089322;28;19919;-78
2021/11/02 10:02:27;;;;;;;;;;;9.10;96.90;;;;;;5088830;28;19908;-76
2021/11/02 10:04:56;;;;;;;;;;;9.00;97.10;;;;;;5089863;28;19910;-77
2021/11/02 10:07:32;;;;;;;;;;;9.00;97.30;;;;;;5089610;28;19938;-77
2021/11/02 10:09:58;;;;;;;;;;;9.10;97.40;;;;;;5088361;28;19915;-76
2021/11/02 10:12:40;;;;;;;;;;;9.20;97.30;;;;;;5089833;28;19915;-75
2021/11/02 10:15:19;;;;;;;;;;;9.30;97.30;;;;;;5090099;28;20028;-75
2021/11/02 10:17:46;;;;;;;;;;;9.40;97.40;;;;;;5072192;28;19919;-78
2021/11/02 10:20:15;;;;;;;;;;;9.50;97.30;;;;;;5090849;28;20370;-76
2021/11/02 10:22:59;;;;;;;;;;;9.60;97.30;;;;;;5091547;28;19912;-77
2021/11/02 10:25:53;;;;;;;;;;;9.80;97.20;;;;;;5091717;28;19912;-77
2021/11/02 10:28:18;;;;;;;;;;;9.80;96.90;;;;;;5091969;28;20000;-79
2021/11/02 10:30:49;;;;;;;;;;;9.80;96.90;;;;;;5091327;28;20389;-79
2021/11/02 10:33:21;;;;;;;;;;;9.80;96.70;;;;;;5085457;28;19995;-75
2021/11/02 10:36:00;;;;;;;;;;;9.80;96.70;;;;;;5071510;28;20049;-78
2021/11/02 10:38:27;;;;;;;;;;;9.80;96.70;;;;;;5077676;28;19908;-75
2021/11/02 10:40:58;;;;;;;;;;;9.80;96.60;;;;;;5091229;28;19974;-78
2021/11/02 10:43:28;;;;;;;;;;;9.80;96.60;;;;;;5091266;28;19940;-78
2021/11/02 10:45:56;;;;;;;;;;;9.90;96.60;;;;;;5091217;28;19908;-76
2021/11/02 10:48:29;;;;;;;;;;;9.90;96.80;;;;;;5086001;28;20283;-76
2021/11/02 10:50:57;;;;;;;;;;;10.00;96.80;;;;;;5090306;28;19908;-77
2021/11/02 10:53:26;;;;;;;;;;;10.00;96.80;;;;;;5091088;28;19918;-75
2021/11/02 10:56:08;;;;;;;;;;;10.00;96.60;;;;;;5089480;28;20314;-77
2021/11/02 10:58:35;;;;;;;;;;;10.00;96.70;;;;;;5091010;28;19911;-77
2021/11/02 11:01:03;;;;;;;;;;;10.10;96.80;;;;;;5089226;28;19915;-77
2021/11/02 11:03:29;;;;;;;;;;;10.20;96.70;;;;;;5091068;28;19908;-76
2021/11/02 11:05:59;;;;;;;;;;;10.20;96.70;;;;;;5090973;28;20369;-76
2021/11/02 11:08:31;;;;;;;;;;;10.20;96.50;;;;;;5091176;28;20358;-78
2021/11/02 11:10:58;;;;;;;;;;;10.20;96.40;;;;;;5089751;28;19915;-78
2021/11/02 11:13:28;;;;;;;;;;;10.30;96.40;;;;;;5090303;28;20265;-74
2021/11/02 11:16:08;;;;;;;;;;;10.40;96.60;;;;;;5089537;28;19985;-75
2021/11/02 11:18:43;;;;;;;;;;;10.40;96.60;;;;;;5087121;28;19914;-76
2021/11/02 11:21:10;;;;;;;;;;;10.50;96.80;;;;;;5085974;28;20011;-81
2021/11/02 11:23:37;;;;;;;;;;;10.50;96.40;;;;;;5089626;28;20270;-79
2021/11/02 11:26:05;;;;;;;;;;;10.40;96.20;;;;;;5091593;28;19915;-76
2021/11/02 11:28:38;;;;;;;;;;;10.40;96.00;;;;;;5089814;28;19992;-75
2021/11/02 11:31:04;;;;;;;;;;;10.40;96.20;;;;;;5090663;28;19915;-76
2021/11/02 11:33:30;;;;;;;;;;;10.40;96.30;;;;;;5089530;28;19932;-75
2021/11/02 11:36:00;;;;;;;;;;;10.50;96.30;;;;;;5088212;28;20022;-74
2021/11/02 11:38:29;;;;;;;;;;;10.50;96.30;;;;;;5087580;28;19958;-75
2021/11/02 11:40:55;;;;;;;;;;;10.60;96.30;;;;;;5088414;28;19953;-76
2021/11/02 11:43:24;;;;;;;;;;;10.70;96.50;;;;;;5090106;28;19920;-77
2021/11/02 11:45:52;;;;;;;;;;;10.80;96.40;;;;;;5089761;28;20002;-77
2021/11/02 11:48:21;;;;;;;;;;;10.90;96.30;;;;;;5090425;28;19934;-77
2021/11/02 11:50:47;;;;;;;;;;;11.40;96.90;;;;;;5088867;28;19915;-75
2021/11/02 11:53:21;;;;;;;;;;;12.20;97.10;;;;;;5067830;28;19920;-77
2021/11/02 11:55:51;;;;;;;;;;;12.90;96.50;;;;;;5087922;28;19958;-78
2021/11/02 11:58:23;;;;;;;;;;;13.30;95.40;;;;;;5088493;28;19916;-74
2021/11/02 12:00:51;;;;;;;;;;;13.20;94.70;;;;;;5089879;28;19935;-79
2021/11/02 12:03:26;;;;;;;;;;;13.00;94.10;;;;;;5088969;28;19916;-76
2021/11/02 12:06:13;;;;;;;;;;;12.80;94.30;;;;;;5082761;28;19908;-77
2021/11/02 12:08:57;;;;;;;;;;;12.80;94.60;;;;;;5090701;28;20593;-77
2021/11/02 12:11:24;;;;;;;;;;;12.70;94.30;;;;;;5071702;28;19912;-76
2021/11/02 12:13:53;;;;;;;;;;;12.50;94.30;;;;;;5089503;28;20015;-76
2021/11/02 12:16:24;;;;;;;;;;;12.50;94.70;;;;;;5088916;28;20373;-76
2021/11/02 12:19:00;;;;;;;;;;;12.50;94.90;;;;;;5088948;28;20054;-78
2021/11/02 12:21:27;;;;;;;;;;;12.40;94.70;;;;;;5089618;28;19908;-76
2021/11/02 12:23:58;;;;;;;;;;;12.30;94.60;;;;;;5087880;28;19908;-78
2021/11/02 12:26:34;;;;;;;;;;;12.20;95.00;;;;;;5088830;28;20393;-74
2021/11/02 12:29:00;;;;;;;;;;;12.60;95.00;;;;;;5088565;28;19912;-74
2021/11/02 12:31:26;;;;;;;;;;;12.80;94.90;;;;;;5088712;28;19961;-75
2021/11/02 12:33:52;;;;;;;;;;;12.80;94.60;;;;;;5088560;28;19974;-75
2021/11/02 12:36:20;;;;;;;;;;;12.80;94.80;;;;;;5087242;28;20300;-74
2021/11/02 12:38:45;;;;;;;;;;;13.00;95.10;;;;;;5089704;28;19962;-76
2021/11/02 12:41:16;;;;;;;;;;;13.30;95.30;;;;;;5088622;28;20351;-74
2021/11/02 12:43:42;;;;;;;;;;;13.80;95.40;;;;;;5088361;28;19912;-74
2021/11/02 12:46:09;;;;;;;;;;;14.20;94.80;;;;;;5089815;28;19959;-74
2021/11/02 12:48:35;;;;;;;;;;;14.30;93.80;;;;;;5089513;28;19912;-75
2021/11/02 12:51:02;;;;;;;;;;;14.10;93.20;;;;;;5088420;28;20042;-75
2021/11/02 12:53:29;;;;;;;;;;;14.00;93.40;;;;;;5093336;28;19938;-79
2021/11/02 12:55:56;;;;;;;;;;;13.90;93.30;;;;;;5093321;28;19912;-76
2021/11/02 12:58:23;;;;;;;;;;;13.80;93.60;;;;;;5091986;28;19908;-77
2021/11/02 13:00:50;;;;;;;;;;;13.90;93.80;;;;;;5093961;28;19969;-74
2021/11/02 13:03:37;;;;;;;;;;;14.00;93.80;;;;;;5093141;28;19914;-76
2021/11/02 13:06:06;;;;;;;;;;;14.30;94.50;;;;;;5093675;28;19918;-76
2021/11/02 13:08:53;;;;;;;;;;;14.60;94.80;;;;;;5093597;28;19947;-76
2021/11/02 13:11:20;;;;;;;;;;;14.90;94.40;;;;;;5092440;28;19912;-78
2021/11/02 13:13:54;;;;;;;;;;;15.00;93.90;;;;;;5092877;28;19912;-75
2021/11/02 13:16:20;;;;;;;;;;;15.00;93.20;;;;;;5081261;28;19915;-75
2021/11/02 13:18:46;;;;;;;;;;;15.10;93.60;;;;;;5092141;28;19915;-76
2021/11/02 13:21:17;;;;;;;;;;;15.10;93.60;;;;;;5092481;28;20331;-75
2021/11/02 13:23:45;;;;;;;;;;;15.10;93.50;;;;;;5091895;28;20362;-75
2021/11/02 13:26:14;;;;;;;;;;;15.00;93.30;;;;;;5090923;28;19916;-74
2021/11/02 13:28:40;;;;;;;;;;;14.90;93.50;;;;;;5092231;28;19919;-76
2021/11/02 13:31:07;;;;;;;;;;;14.90;93.80;;;;;;5091642;28;20298;-75
2021/11/02 13:33:33;;;;;;;;;;;14.80;93.60;;;;;;5092169;28;19920;-76
2021/11/02 13:35:59;;;;;;;;;;;14.50;93.20;;;;;;5092154;28;20315;-75
2021/11/02 13:38:25;;;;;;;;;;;14.20;93.00;;;;;;5092242;28;19908;-74
2021/11/02 13:40:51;;;;;;;;;;;13.90;93.00;;;;;;5092453;28;19919;-75
2021/11/02 13:43:24;;;;;;;;;;;13.70;93.10;;;;;;5092579;28;19916;-75
2021/11/02 13:45:50;;;;;;;;;;;13.60;93.20;;;;;;5092557;28;20038;-73
2021/11/02 13:48:16;;;;;;;;;;;13.50;93.50;;;;;;5091701;28;20378;-73
2021/11/02 13:50:44;;;;;;;;;;;13.50;93.60;;;;;;5092220;28;19908;-74
2021/11/02 13:53:10;;;;;;;;;;;13.70;93.80;;;;;;5091129;28;20330;-74
2021/11/02 13:55:36;;;;;;;;;;;13.80;93.80;;;;;;5091908;28;19919;-75
2021/11/02 13:58:02;;;;;;;;;;;13.80;93.70;;;;;;5093159;28;20003;-76
2021/11/02 14:00:27;;;;;;;;;;;13.90;93.60;;;;;;5091310;28;20374;-80
2021/11/02 14:02:53;;;;;;;;;;;13.80;93.30;;;;;;5073661;28;19912;-73
2021/11/02 14:05:19;;;;;;;;;;;13.70;93.50;;;;;;5091611;28;20440;-73
2021/11/02 14:07:45;;;;;;;;;;;13.70;93.30;;;;;;5091393;28;20003;-73
2021/11/02 14:10:11;;;;;;;;;;;13.70;93.30;;;;;;5091692;28;19912;-77
2021/11/02 14:12:45;;;;;;;;;;;13.70;93.30;;;;;;5072358;28;19918;-78
2021/11/02 14:15:11;;;;;;;;;;;13.70;92.90;;;;;;5091616;28;20358;-76
2021/11/02 14:17:51;;;;;;;;;;;13.70;92.80;;;;;;5091903;28;19962;-77
2021/11/02 14:20:32;;;;;;;;;;;13.70;92.70;;;;;;5092033;28;19908;-75
2021/11/02 14:22:59;;;;;;;;;;;13.70;92.60;;;;;;5090846;28;19909;-76
2021/11/02 14:25:34;;;;;;;;;;;13.70;92.20;;;;;;5091345;28;19961;-76
2021/11/02 14:27:59;;;;;;;;;;;13.70;92.10;;;;;;5089986;28;20346;-76
2021/11/02 14:30:31;;;;;;;;;;;13.60;92.20;;;;;;5091133;28;19925;-76
2021/11/02 14:33:00;;;;;;;;;;;13.60;92.30;;;;;;5092697;28;19924;-77
2021/11/02 14:35:40;;;;;;;;;;;13.60;92.10;;;;;;5090730;28;20430;-77
2021/11/02 14:38:10;;;;;;;;;;;13.50;92.00;;;;;;5090524;28;19954;-74
2021/11/02 14:40:39;;;;;;;;;;;13.40;92.10;;;;;;5089512;28;20374;-76
2021/11/02 14:43:14;;;;;;;;;;;13.30;92.10;;;;;;5091668;28;19953;-76
2021/11/02 14:45:53;;;;;;;;;;;13.20;92.10;;;;;;5090501;28;20011;-76
2021/11/02 14:48:24;;;;;;;;;;;13.20;92.20;;;;;;5090621;28;19916;-77
2021/11/02 14:50:54;;;;;;;;;;;13.10;92.30;;;;;;5090602;28;19990;-76
2021/11/02 14:53:29;;;;;;;;;;;13.10;92.30;;;;;;5090539;28;20354;-77
2021/11/02 14:56:00;;;;;;;;;;;13.00;92.30;;;;;;5091102;28;19947;-76
2021/11/02 14:58:52;;;;;;;;;;;13.00;92.30;;;;;;5089861;28;19919;-75
2021/11/02 15:01:17;;;;;;;;;;;12.90;92.40;;;;;;5077914;28;19918;-76
2021/11/02 15:03:55;;;;;;;;;;;12.90;92.20;;;;;;5090377;28;20000;-75
2021/11/02 15:06:26;;;;;;;;;;;12.80;92.20;;;;;;5088262;28;19908;-76
2021/11/02 15:08:53;;;;;;;;;;;12.70;92.30;;;;;;5091433;28;19909;-75
2021/11/02 15:11:18;;;;;;;;;;;12.70;92.40;;;;;;5091367;28;20085;-76
2021/11/02 15:13:51;;;;;;;;;;;12.60;92.30;;;;;;5089990;28;19959;-72
2021/11/02 15:16:18;;;;;;;;;;;12.50;92.30;;;;;;5090477;28;20002;-74
2021/11/02 15:18:49;;;;;;;;;;;12.40;92.30;;;;;;5089872;28;19916;-74
2021/11/02 15:21:21;;;;;;;;;;;12.40;92.30;;;;;;5090788;28;19919;-75
2021/11/02 15:23:47;;;;;;;;;;;12.30;92.40;;;;;;5090151;28;20383;-78
2021/11/02 15:26:14;;;;;;;;;;;12.20;92.40;;;;;;5090940;28;20293;-76
2021/11/02 15:28:44;;;;;;;;;;;12.10;92.40;;;;;;5090764;28;19916;-77
2021/11/02 15:31:09;;;;;;;;;;;12.00;92.40;;;;;;5090437;28;20285;-75
2021/11/02 15:33:39;;;;;;;;;;;11.90;92.30;;;;;;5090678;28;19916;-76
2021/11/02 15:36:08;;;;;;;;;;;11.80;92.30;;;;;;5088517;28;19920;-78
2021/11/02 15:38:34;;;;;;;;;;;11.70;92.40;;;;;;5088617;28;20297;-78
2021/11/02 15:41:15;;;;;;;;;;;11.60;92.40;;;;;;5089008;28;19916;-76
2021/11/02 15:43:54;;;;;;;;;;;11.50;92.50;;;;;;5088729;28;19983;-74
2021/11/02 15:46:24;;;;;;;;;;;11.50;92.50;;;;;;5089983;28;20417;-76
2021/11/02 15:48:53;;;;;;;;;;;11.40;92.60;;;;;;5090508;28;19912;-72
2021/11/02 15:51:19;;;;;;;;;;;11.40;92.60;;;;;;5089974;28;19914;-76
2021/11/02 15:53:45;;;;;;;;;;;11.30;92.60;;;;;;5090301;28;19961;-76
2021/11/02 15:56:10;;;;;;;;;;;11.20;92.60;;;;;;5089902;28;19912;-75
2021/11/02 15:58:36;;;;;;;;;;;11.20;92.60;;;;;;5088777;28;19943;-76
2021/11/02 16:01:02;;;;;;;;;;;11.10;92.60;;;;;;5089774;28;19912;-75
2021/11/02 16:03:35;;;;;;;;;;;11.00;92.60;;;;;;5089856;28;19954;-77
2021/11/02 16:06:04;;;;;;;;;;;11.00;92.60;;;;;;5089125;28;19953;-73
2021/11/02 16:08:30;;;;;;;;;;;10.90;92.60;;;;;;5089782;28;20312;-76
2021/11/02 16:11:06;;;;;;;;;;;10.80;92.70;;;;;;5090274;28;19978;-75
2021/11/02 16:13:32;;;;;;;;;;;10.80;92.70;;;;;;5089553;28;19912;-75
2021/11/02 16:15:58;;;;;;;;;;;10.70;92.70;;;;;;5089767;28;19962;-74
2021/11/02 16:18:25;;;;;;;;;;;10.60;92.70;;;;;;5089644;28;19908;-75
2021/11/02 16:20:52;;;;;;;;;;;10.60;92.80;;;;;;5088268;28;19926;-75
2021/11/02 16:23:19;;;;;;;;;;;10.50;92.80;;;;;;5089586;28;20335;-75
2021/11/02 16:25:49;;;;;;;;;;;10.50;92.80;;;;;;5088926;28;20375;-75
2021/11/02 16:28:19;;;;;;;;;;;10.50;92.90;;;;;;5089186;28;20646;-73
2021/11/02 16:30:45;;;;;;;;;;;10.50;92.90;;;;;;5089121;28;19908;-75
2021/11/02 16:33:11;;;;;;;;;;;10.40;92.90;;;;;;5089429;28;20069;-76
2021/11/02 16:35:44;;;;;;;;;;;10.40;92.90;;;;;;5089540;28;19912;-74
2021/11/02 16:38:33;;;;;;;;;;;10.40;92.90;;;;;;5089449;28;20336;-76
2021/11/02 16:41:00;;;;;;;;;;;10.40;93.00;;;;;;5088577;28;20346;-75
2021/11/02 16:43:31;;;;;;;;;;;10.40;93.10;;;;;;5087684;28;19908;-76
2021/11/02 16:45:57;;;;;;;;;;;10.40;93.10;;;;;;5087761;28;19912;-76
2021/11/02 16:48:36;;;;;;;;;;;10.40;93.10;;;;;;5089291;28;19973;-75
2021/11/02 16:51:02;;;;;;;;;;;10.40;93.10;;;;;;5086683;28;19909;-76
2021/11/02 16:53:29;;;;;;;;;;;10.40;93.10;;;;;;5088837;28;19962;-74
2021/11/02 16:55:59;;;;;;;;;;;10.40;93.10;;;;;;5088655;28;19908;-75
2021/11/02 16:58:26;;;;;;;;;;;10.30;93.20;;;;;;5087590;28;19909;-75
2021/11/02 17:01:10;;;;;;;;;;;10.20;93.20;;;;;;5088741;28;19924;-76
2021/11/02 17:03:39;;;;;;;;;;;10.20;93.30;;;;;;5078160;28;19912;-75
2021/11/02 17:06:12;;;;;;;;;;;10.10;93.30;;;;;;5087447;28;19908;-75
2021/11/02 17:08:45;;;;;;;;;;;10.10;93.40;;;;;;5087497;28;19915;-75
2021/11/02 17:11:17;;;;;;;;;;;10.10;93.40;;;;;;5073667;28;19916;-73
2021/11/02 17:13:46;;;;;;;;;;;10.00;93.40;;;;;;5086474;28;19912;-76
2021/11/02 17:16:14;;;;;;;;;;;9.90;93.40;;;;;;5089118;28;19908;-76
2021/11/02 17:18:46;;;;;;;;;;;9.90;93.40;;;;;;5088026;28;20010;-76
2021/11/02 17:21:13;;;;;;;;;;;9.80;93.40;;;;;;5088262;28;20259;-76
2021/11/02 17:23:38;;;;;;;;;;;9.70;93.40;;;;;;5088956;28;19955;-77
2021/11/02 17:26:05;;;;;;;;;;;9.70;93.50;;;;;;5089030;28;20317;-76
2021/11/02 17:28:31;;;;;;;;;;;9.60;93.50;;;;;;5089457;28;19914;-78
2021/11/02 17:31:01;;;;;;;;;;;9.60;93.60;;;;;;5089890;28;19908;-80
2021/11/02 17:33:27;;;;;;;;;;;9.50;93.60;;;;;;5089865;28;20384;-78
2021/11/02 17:35:53;;;;;;;;;;;9.40;93.60;;;;;;5087126;28;19920;-75
2021/11/02 17:38:20;;;;;;;;;;;9.40;93.60;;;;;;5089998;28;20424;-73
2021/11/02 17:40:46;;;;;;;;;;;9.40;93.70;;;;;;5091247;28;19957;-76
2021/11/02 17:43:12;;;;;;;;;;;9.30;93.80;;;;;;5092682;28;19955;-75
2021/11/02 17:45:38;;;;;;;;;;;9.30;93.80;;;;;;5090488;28;19977;-74
2021/11/02 17:48:04;;;;;;;;;;;9.20;93.80;;;;;;5092225;28;20069;-76
2021/11/02 17:50:31;;;;;;;;;;;9.20;93.90;;;;;;5092362;28;20002;-75
2021/11/02 17:52:57;;;;;;;;;;;9.20;93.90;;;;;;5091931;28;19913;-76
2021/11/02 17:55:23;;;;;;;;;;;9.20;93.90;;;;;;5090090;28;20370;-75
2021/11/02 17:57:50;;;;;;;;;;;9.10;94.00;;;;;;5091335;28;19912;-76
2021/11/02 18:00:20;;;;;;;;;;;9.10;94.00;;;;;;5092039;28;19916;-79
2021/11/02 18:02:48;;;;;;;;;;;9.10;94.10;;;;;;5091007;28;19959;-73
2021/11/02 18:05:13;;;;;;;;;;;9.10;94.10;;;;;;5091401;28;19915;-77
2021/11/02 18:07:39;;;;;;;;;;;9.10;94.10;;;;;;5091428;28;20567;-76
2021/11/02 18:10:05;;;;;;;;;;;9.00;94.10;;;;;;5091493;28;20355;-75
2021/11/02 18:12:31;;;;;;;;;;;9.00;94.10;;;;;;5091945;28;19938;-76
2021/11/02 18:14:57;;;;;;;;;;;8.90;94.10;;;;;;5090108;28;19916;-76
2021/11/02 18:17:24;;;;;;;;;;;8.90;94.20;;;;;;5090644;28;19951;-74
2021/11/02 18:19:53;;;;;;;;;;;8.90;94.20;;;;;;5091307;28;19916;-75
2021/11/02 18:22:19;;;;;;;;;;;8.90;94.30;;;;;;5091005;28;19908;-73
2021/11/02 18:24:46;;;;;;;;;;;8.90;94.30;;;;;;5091077;28;20308;-74
2021/11/02 18:27:13;;;;;;;;;;;8.90;94.30;;;;;;5091919;28;20476;-74
2021/11/02 18:29:39;;;;;;;;;;;8.90;94.40;;;;;;5091250;28;19909;-77
2021/11/02 18:32:05;;;;;;;;;;;8.90;94.40;;;;;;5073159;28;19968;-75
2021/11/02 18:34:30;;;;;;;;;;;8.90;94.40;;;;;;5091876;28;19916;-78
2021/11/02 18:36:57;;;;;;;;;;;9.00;94.40;;;;;;5091410;28;20342;-78
2021/11/02 18:39:23;;;;;;;;;;;8.90;94.30;;;;;;5090156;28;19915;-77
2021/11/02 18:41:52;;;;;;;;;;;8.90;94.30;;;;;;5090850;28;19920;-76
2021/11/02 18:44:17;;;;;;;;;;;8.90;94.30;;;;;;5090627;28;19928;-74
2021/11/02 18:46:44;;;;;;;;;;;8.90;94.30;;;;;;5090844;28;20019;-77
2021/11/02 18:49:10;;;;;;;;;;;8.90;94.40;;;;;;5090537;28;19912;-76
2021/11/02 18:51:35;;;;;;;;;;;8.80;94.40;;;;;;5089636;28;20018;-76
2021/11/02 18:54:01;;;;;;;;;;;8.90;94.40;;;;;;5087388;28;19916;-76
2021/11/02 18:56:27;;;;;;;;;;;8.80;94.40;;;;;;5084536;28;20243;-78
2021/11/02 18:58:53;;;;;;;;;;;8.80;94.40;;;;;;5084713;28;20021;-76
2021/11/02 19:01:22;;;;;;;;;;;8.90;94.40;;;;;;5085995;28;19908;-76
2021/11/02 19:03:57;;;;;;;;;;;8.80;94.40;;;;;;5085438;28;19912;-74
2021/11/02 19:06:23;;;;;;;;;;;8.80;94.50;;;;;;5084939;28;20108;-75
2021/11/02 19:08:49;;;;;;;;;;;8.70;94.40;;;;;;5085754;28;19919;-75
2021/11/02 19:11:14;;;;;;;;;;;8.70;94.40;;;;;;5085450;28;20301;-76
2021/11/02 19:13:41;;;;;;;;;;;8.60;94.40;;;;;;5084505;28;19985;-75
2021/11/02 19:16:07;;;;;;;;;;;8.60;94.40;;;;;;5084206;28;20011;-74
2021/11/02 19:18:34;;;;;;;;;;;8.60;94.50;;;;;;5085413;28;19915;-77
2021/11/02 19:20:59;;;;;;;;;;;8.60;94.50;;;;;;5087907;28;20375;-78
2021/11/02 19:23:25;;;;;;;;;;;8.50;94.50;;;;;;5088308;28;19961;-78
2021/11/02 19:25:51;;;;;;;;;;;8.50;94.60;;;;;;5088767;28;20469;-76
2021/11/02 19:28:17;;;;;;;;;;;8.50;94.60;;;;;;5088584;28;19957;-77
2021/11/02 19:30:42;;;;;;;;;;;8.40;94.80;;;;;;5088608;28;20291;-77
2021/11/02 19:33:09;;;;;;;;;;;8.40;94.60;;;;;;5088637;28;19908;-75
2021/11/02 19:35:36;;;;;;;;;;;8.40;94.60;;;;;;5088665;28;19912;-76